This is the latest recevied weather packets stored in our database for station/object KG2V. If no packets are shown the sender has not sent any weather packets the latest 10 day(s).
| Time | Temp. | Humidity | Pressure | Rain* | Wind** | Luminosity | Snow |
|---|---|---|---|---|---|---|---|
| 1778358287 | 18.89° C | 58% | 999.7 hPa | 0 mm | - | 367 W/m² | - |
| 1778357981 | 20° C | 56% | 999.2 hPa | 0 mm | - | 115 W/m² | - |
| 1778357677 | 18.89° C | 64% | 999.4 hPa | 0 mm | - | 519 W/m² | - |
| 1778357374 | 18.33° C | 60% | 999.8 hPa | 0 mm | - | 288 W/m² | - |
| 1778357074 | 18.33° C | 59% | 999.5 hPa | 0 mm | - | 128 W/m² | - |
| 1778356771 | 18.89° C | 57% | 999.7 hPa | 0 mm | - | 131 W/m² | - |
| 1778356462 | 20° C | 57% | 999.9 hPa | 0 mm | - | 219 W/m² | - |
| 1778356160 | 20° C | 60% | 999.7 hPa | 0 mm | - | 492 W/m² | - |
| 1778355856 | 19.44° C | 58% | 1000.1 hPa | 0 mm | - | 161 W/m² | - |
| 1778355554 | 19.44° C | 60% | 1000 hPa | 0 mm | - | 602 W/m² | - |
| 1778355253 | 20.56° C | 54% | 1000.2 hPa | 0 mm | - | 173 W/m² | - |
| 1778354949 | 20° C | 57% | 1000.2 hPa | 0 mm | - | 659 W/m² | - |
| 1778354645 | 18.89° C | 60% | 1000.1 hPa | 0 mm | - | 646 W/m² | - |
| 1778354341 | 18.89° C | 61% | 1000.1 hPa | 0 mm | - | 609 W/m² | - |
| 1778354037 | 20° C | 56% | 1000 hPa | 0 mm | - | 475 W/m² | - |
| 1778353733 | 20° C | 59% | 1000 hPa | 0 mm | - | 676 W/m² | - |
| 1778353430 | 18.89° C | 61% | 1000.3 hPa | 0 mm | - | 651 W/m² | - |
| 1778353128 | 18.89° C | 61% | 1000.3 hPa | 0 mm | - | 691 W/m² | - |
| 1778352824 | 17.78° C | 65% | 1000.5 hPa | 0 mm | - | 565 W/m² | - |
| 1778352521 | 17.78° C | 62% | 1000.4 hPa | 0 mm | - | 153 W/m² | - |
| 1778352218 | 18.89° C | 60% | 1000.5 hPa | 0 mm | - | 141 W/m² | - |
| 1778351915 | 18.89° C | 60% | 1000.5 hPa | 0 mm | - | 688 W/m² | - |
| 1778351610 | 18.89° C | 58% | 1000.6 hPa | 0 mm | - | 740 W/m² | - |
| 1778351306 | 18.89° C | 57% | 1000.8 hPa | 0 mm | - | 711 W/m² | - |
| 1778351004 | 19.44° C | 57% | 1000.7 hPa | 0 mm | - | 693 W/m² | - |
* Rain latest hour (hover to see other rain measurements)
** Current wind speed in m/s (hover to see current wind gust speed)